Ana Sayfa
METAR-TAF:

METAR-TAF

Havaalanları :

Qingdao, Çin

Enlem: 36-04N, Boylam: 120-20E, yükseklik: 77 m

Güncel hava durumu gözlemi

Rapor saat 15:00 UTC de 1 saat ve 9 dakika önce yapıldı.
Rüzgar güney/güneydoğudan 12 kt
Sıcaklık 26°C
Nem 100%
Basınç 1001 hPa
Görüş mesafesi 10 km veya daha fazla
700 ft yükseklikte parçalı çok bulutlu

METAR: ZSQD 241500Z 16006MPS 9999 BKN007 26/26 Q1001 NOSIG

Saat: 00:09 (16:09 UTC)

Tahmin

Rapor saat 09:07 UTC de 7 saat ve 2 dakika önce yapıldı.
Ayın 24'si saat 12 UTC'den ayın 25'si saat 12 UTC'ye kadar geçerli Tahmin
Rüzgar güney/güneydoğudan 10 kt
Görüş mesafesi: 3500 m
Pus
Geçici
ayın 24'si saat 17 UTC'den ayın 24'si saat 23 UTC'ye kadar
500 ft yükseklikte parçalı çok bulutlu

TAF: ZSQD 240907Z 2412/2512 16005MPS 3500 BR NSC TX31/2506Z TN26/2420Z TEMPO 2417/2423 BKN005

4.000'den fazla havaalanı için hava durumu gözlemleri ve tahminleri (METAR ve TAF raporları).

Kullanılabilir istasyonlar harita üzerinde sarı ve kırmızı noktalarla gösterilir.

İstasyonun adını görmek için fareyi noktanın üzerinde gezdirin.

Sonrasında hava gözlem ve tahminlerini görmek için tıklayın.

Haritayı değiştirmek için: yaklaştırmak için siyah artı işaretli yeşil düğmeye ve uzaklaştırmak için de eksi işaretli düğmeye hızla tıklayın; bitişik haritalar için yeşil okları kullanın.


METAR-TAF: